Time;durP1;ratioP1;P1;durP2;ratioP2;P2;SDS_P1;SDS_P2;PMS_P1;PMS_P2;Temp;Humidity;BMP_temperature;BMP_pressure;BME280_temperature;BME280_humidity;BME280_pressure;Samples;Min_cycle;Max_cycle;Signal;HPM_P1;HPM_P2
2024/01/18 00:01:31;;;;;;;5.43;3.63;;;;;;;-145.63;49.76;38906.91;5020760;28;20056;-61
2024/01/18 00:03:58;;;;;;;5.57;4.10;;;;;;;-145.63;49.46;38922.56;5003054;28;20062;-59
2024/01/18 00:06:24;;;;;;;6.43;3.67;;;;;;;-145.63;50.43;38906.91;5020488;28;20318;-61
2024/01/18 00:08:49;;;;;;;5.50;4.10;;;;;;;-145.63;50.09;38904.97;5009682;28;20026;-60
2024/01/18 00:11:16;;;;;;;7.88;4.32;;;;;;;-145.63;50.10;38891.28;5011017;28;20030;-61
2024/01/18 00:13:43;;;;;;;6.35;3.83;;;;;;;-145.63;50.02;38811.09;5018671;28;20057;-61
2024/01/18 00:16:09;;;;;;;5.32;4.40;;;;;;;-145.63;50.72;38881.50;5010253;28;20037;-61
2024/01/18 00:18:35;;;;;;;5.93;4.10;;;;;;;-145.63;50.83;38914.72;5022103;28;20034;-61
2024/01/18 00:21:01;;;;;;;5.07;3.83;;;;;;;-145.63;49.83;38895.19;5022400;28;20032;-61
2024/01/18 00:23:26;;;;;;;7.38;4.22;;;;;;;-145.63;50.79;38903.00;5012729;28;20093;-61
2024/01/18 00:25:52;;;;;;;7.95;4.18;;;;;;;-145.63;50.02;38897.13;5007879;28;20022;-61
2024/01/18 00:28:18;;;;;;;6.65;4.47;;;;;;;-145.63;50.31;38957.75;5022727;28;20237;-61
2024/01/18 00:30:43;;;;;;;6.45;4.00;;;;;;;-145.63;50.47;38899.09;5042100;28;20064;-61
2024/01/18 00:33:09;;;;;;;6.60;4.20;;;;;;;-145.63;50.72;38901.03;5026628;28;20203;-61
2024/01/18 00:35:35;;;;;;;5.70;3.55;;;;;;;-145.63;50.66;38891.28;5014321;28;20030;-61
2024/01/18 00:38:00;;;;;;;6.03;3.75;;;;;;;-145.63;49.76;38916.69;5022036;28;20302;-62
2024/01/18 00:40:26;;;;;;;6.43;3.85;;;;;;;-145.63;50.56;38875.63;5021064;28;20026;-61
2024/01/18 00:42:52;;;;;;;5.50;3.88;;;;;;;-145.63;49.95;38889.31;5002684;28;20306;-60
2024/01/18 00:45:17;;;;;;;6.13;3.95;;;;;;;-145.63;50.41;38875.63;5018873;28;20026;-61
2024/01/18 00:47:44;;;;;;;5.28;3.65;;;;;;;-145.63;50.29;38883.44;5014315;28;20065;-60
2024/01/18 00:50:10;;;;;;;7.10;4.43;;;;;;;-145.63;50.91;38904.97;5019913;28;20032;-62
2024/01/18 00:52:35;;;;;;;6.50;3.90;;;;;;;-145.63;50.11;38887.34;5023401;28;20038;-61
2024/01/18 00:55:01;;;;;;;5.90;3.92;;;;;;;-145.63;50.85;38906.91;5006351;28;20037;-62
2024/01/18 00:57:28;;;;;;;10.68;4.65;;;;;;;-145.63;50.94;38903.00;5024645;28;20033;-61
2024/01/18 01:00:13;;;;;;;6.65;5.00;;;;;;;-145.63;49.52;38895.19;5039327;28;20071;-60
2024/01/18 01:03:05;;;;;;;8.93;4.72;;;;;;;-145.63;50.80;38887.34;5034228;28;20026;-60
2024/01/18 01:05:37;;;;;;;6.05;4.30;;;;;;;-145.63;50.28;38897.13;5015109;28;20029;-60
2024/01/18 01:08:05;;;;;;;8.65;4.80;;;;;;;-145.63;50.87;38871.72;5019133;28;20331;-59
2024/01/18 01:10:31;;;;;;;8.13;4.97;;;;;;;-145.63;50.37;38891.28;5023992;28;20030;-60
2024/01/18 01:12:56;;;;;;;8.10;4.97;;;;;;;-145.63;51.18;38875.63;5005979;28;20242;-62
2024/01/18 01:15:22;;;;;;;7.43;5.43;;;;;;;-145.63;50.98;38897.13;5022966;28;20025;-60
2024/01/18 01:17:48;;;;;;;6.72;4.63;;;;;;;-145.63;51.02;38873.66;5025598;28;20024;-60
2024/01/18 01:20:22;;;;;;;6.05;4.82;;;;;;;-145.63;51.33;38879.53;5025439;28;20075;-61
2024/01/18 01:22:54;;;;;;;7.95;4.88;;;;;;;-145.63;51.42;38873.66;5030369;28;20025;-61
2024/01/18 01:25:21;;;;;;;9.27;5.40;;;;;;;-145.63;50.26;38871.72;5045274;28;20295;-61
2024/01/18 01:27:47;;;;;;;7.03;5.13;;;;;;;-145.63;50.80;38869.75;5025355;28;20025;-60
2024/01/18 01:30:12;;;;;;;8.48;5.47;;;;;;;-145.63;51.10;38856.06;5010028;28;20046;-60
2024/01/18 01:32:38;;;;;;;7.93;5.03;;;;;;;-145.63;50.76;38869.75;5016115;28;20077;-59
2024/01/18 01:35:04;;;;;;;6.05;5.18;;;;;;;-145.63;50.88;38891.28;5019559;28;20037;-60
2024/01/18 01:37:29;;;;;;;8.40;5.63;;;;;;;-145.63;50.87;38852.16;5024463;28;20036;-59
2024/01/18 01:39:55;;;;;;;7.78;5.22;;;;;;;-145.63;50.19;38877.56;5025120;28;20034;-60
2024/01/18 01:42:39;;;;;;;6.72;5.18;;;;;;;-145.63;50.70;38867.81;5025286;28;20322;-60
2024/01/18 01:45:38;;;;;;;6.78;5.05;;;;;;;-145.63;50.26;38869.75;5010940;28;20037;-61
2024/01/18 01:48:08;;;;;;;8.18;4.82;;;;;;;-145.63;50.10;38856.06;5051226;28;20034;-61
2024/01/18 01:50:35;;;;;;;8.02;5.80;;;;;;;-145.63;49.97;38871.72;5027434;28;20036;-61
2024/01/18 01:53:01;;;;;;;7.63;5.50;;;;;;;-145.63;50.49;38875.63;5019412;28;20495;-61
2024/01/18 01:55:27;;;;;;;6.95;5.30;;;;;;;-145.63;51.87;38879.53;5007543;28;20080;-60
2024/01/18 01:57:53;;;;;;;8.52;6.03;;;;;;;-145.63;50.82;38875.63;5024444;28;20487;-60
2024/01/18 02:00:21;;;;;;;9.45;6.10;;;;;;;-145.63;51.89;38854.13;5008766;28;20026;-61
2024/01/18 02:02:54;;;;;;;8.73;6.00;;;;;;;-145.63;51.91;38871.72;5016531;28;20144;-61
2024/01/18 02:05:38;;;;;;;7.30;5.72;;;;;;;-145.63;51.98;38850.19;5015278;28;20034;-61
2024/01/18 02:08:16;;;;;;;7.65;5.80;;;;;;;-145.63;51.91;38854.13;5018270;28;20117;-61
2024/01/18 02:10:41;;;;;;;12.55;6.32;;;;;;;-145.63;52.91;38844.34;5021965;28;20092;-61
2024/01/18 02:13:08;;;;;;;8.30;5.70;;;;;;;-145.63;52.20;38840.44;5013819;28;20048;-61
2024/01/18 02:15:34;;;;;;;8.43;5.80;;;;;;;-145.63;51.85;38828.69;5024550;28;20021;-61
2024/01/18 02:18:00;;;;;;;10.43;6.20;;;;;;;-145.63;51.34;38859.97;5024277;28;20324;-61
2024/01/18 02:20:26;;;;;;;8.32;5.70;;;;;;;-145.63;51.33;38824.78;5024530;28;20072;-60
2024/01/18 02:22:53;;;;;;;6.85;5.30;;;;;;;-145.63;51.39;38574.47;5020571;28;20030;-61
2024/01/18 02:25:24;;;;;;;8.52;6.13;;;;;;;-145.63;52.38;38901.03;5004634;28;20214;-60
2024/01/18 02:27:57;;;;;;;9.35;5.95;;;;;;;-145.63;51.83;38867.81;5004991;28;20037;-61
2024/01/18 02:30:23;;;;;;;11.55;6.30;;;;;;;-145.63;52.10;38859.97;5036810;28;20053;-59
2024/01/18 02:32:49;;;;;;;11.23;6.47;;;;;;;-145.63;51.65;38836.50;5032173;28;20037;-59
2024/01/18 02:35:15;;;;;;;9.23;6.30;;;;;;;-145.63;51.25;38859.97;5017459;28;20054;-60
2024/01/18 02:37:41;;;;;;;9.05;6.50;;;;;;;-145.63;51.21;38856.06;5023935;28;20057;-61
2024/01/18 02:40:08;;;;;;;9.95;6.25;;;;;;;-145.63;51.92;38901.03;5023851;28;20210;-60
2024/01/18 02:42:33;;;;;;;8.38;6.40;;;;;;;-145.63;52.31;38875.63;5006167;28;20027;-61
2024/01/18 02:45:02;;;;;;;9.93;6.07;;;;;;;-145.63;50.76;38875.63;5016950;28;20033;-61
2024/01/18 02:47:30;;;;;;;13.07;6.70;;;;;;;-145.63;51.98;38838.47;5015299;28;20069;-61
2024/01/18 02:49:56;;;;;;;9.13;6.25;;;;;;;-145.63;51.65;38897.13;5016838;28;20077;-60
2024/01/18 02:52:22;;;;;;;10.43;6.13;;;;;;;-145.63;50.47;38856.06;5023870;28;20180;-61
2024/01/18 02:54:48;;;;;;;9.45;6.13;;;;;;;-145.63;51.26;38854.13;5004313;28;20061;-60
2024/01/18 02:57:13;;;;;;;9.38;6.85;;;;;;;-145.63;49.84;38846.28;5020659;28;20315;-60
2024/01/18 02:59:39;;;;;;;10.30;6.97;;;;;;;-145.63;50.80;38836.50;5023620;28;20314;-61
2024/01/18 03:02:19;;;;;;;11.25;6.60;;;;;;;-145.63;51.07;38858.03;5018213;28;20034;-60
2024/01/18 03:04:45;;;;;;;9.07;6.10;;;;;;;-145.63;50.96;38859.97;5006573;28;20104;-61
2024/01/18 03:07:10;;;;;;;9.18;6.50;;;;;;;-145.63;50.59;38871.72;5023561;28;20022;-61
2024/01/18 03:09:37;;;;;;;11.32;6.72;;;;;;;-145.63;51.01;38836.50;5040543;28;20033;-61
2024/01/18 03:12:03;;;;;;;9.88;6.38;;;;;;;-145.63;51.85;38811.09;5029951;28;20071;-61
2024/01/18 03:14:28;;;;;;;9.32;6.22;;;;;;;-145.63;51.02;38781.75;5014797;28;20050;-61
2024/01/18 03:16:54;;;;;;;11.80;7.57;;;;;;;-145.63;50.49;38863.88;5017793;28;20038;-60
2024/01/18 03:19:19;;;;;;;11.20;7.55;;;;;;;-145.63;51.47;38863.88;5022116;28;20336;-60
2024/01/18 03:22:22;;;;;;;9.30;6.82;;;;;;;-145.63;51.07;38842.38;5023160;28;20026;-60
2024/01/18 03:24:51;;;;;;;10.88;6.88;;;;;;;-145.63;50.16;38815.00;5003662;28;20105;-61
2024/01/18 03:27:19;;;;;;;9.10;6.57;;;;;;;-145.63;51.24;38865.84;5025139;28;20030;-61
2024/01/18 03:29:47;;;;;;;;;;;;;;;-145.63;50.66;38822.81;5023482;28;20203;-61
2024/01/18 03:32:19;;;;;;;8.77;6.25;;;;;;;-145.63;51.48;38813.03;5016853;28;19920;-62
2024/01/18 03:35:03;;;;;;;10.50;6.32;;;;;;;-145.63;50.62;38854.13;5005536;28;20045;-61
2024/01/18 03:38:18;;;;;;;11.23;6.85;;;;;;;-145.63;51.45;38828.69;5022814;28;20017;-60
2024/01/18 03:40:52;;;;;;;11.70;7.80;;;;;;;-145.63;50.94;38824.78;5005626;28;20034;-61
2024/01/18 03:43:19;;;;;;;11.95;7.70;;;;;;;-145.63;50.01;38836.50;5022804;28;20084;-60
2024/01/18 03:45:46;;;;;;;11.93;7.50;;;;;;;-145.63;50.95;38846.28;5004296;28;20030;-61
2024/01/18 03:48:11;;;;;;;11.15;6.88;;;;;;;-145.63;50.55;38856.06;5018903;28;20446;-61
2024/01/18 03:50:37;;;;;;;11.90;7.03;;;;;;;-145.63;51.04;38858.03;5027450;28;20041;-60
2024/01/18 03:53:03;;;;;;;10.63;6.80;;;;;;;-145.63;50.61;38852.16;5018086;28;20034;-60
2024/01/18 03:55:28;;;;;;;10.40;7.05;;;;;;;-145.63;50.50;38842.38;5004222;28;20030;-61
2024/01/18 03:57:54;;;;;;;9.55;6.72;;;;;;;-145.63;50.52;38824.78;5003130;28;20022;-62
2024/01/18 04:00:20;;;;;;;10.85;7.25;;;;;;;-145.63;50.25;38822.81;5032640;28;20097;-62
2024/01/18 04:02:45;;;;;;;9.48;7.18;;;;;;;-145.63;51.78;38844.34;5032078;28;20034;-61
2024/01/18 04:05:11;;;;;;;10.88;7.25;;;;;;;-145.63;50.58;38818.91;5016911;28;20207;-62
2024/01/18 04:07:38;;;;;;;9.32;6.40;;;;;;;-145.63;51.31;38824.78;5012768;28;20017;-61
2024/01/18 04:10:12;;;;;;;10.48;6.80;;;;;;;-145.63;50.49;38813.03;5022450;28;20026;-62
2024/01/18 04:12:38;;;;;;;11.90;6.95;;;;;;;-145.63;51.42;38828.69;5005067;28;20029;-62
2024/01/18 04:15:05;;;;;;;10.32;6.90;;;;;;;-145.63;50.95;38850.19;5015246;28;20087;-61
2024/01/18 04:17:31;;;;;;;11.23;7.60;;;;;;;-145.63;50.47;38848.25;5022354;28;20030;-62
2024/01/18 04:19:57;;;;;;;11.82;7.75;;;;;;;-145.63;50.94;38811.09;5022148;28;20033;-61
2024/01/18 04:22:23;;;;;;;11.00;7.35;;;;;;;-145.63;52.63;38025.06;5022267;28;20072;-63
2024/01/18 04:28:22;;;;;;;10.52;7.18;;;;;;;-145.63;51.04;38842.38;5021200;28;20057;-61
2024/01/18 04:30:51;;;;;;;10.75;7.40;;;;;;;-145.63;50.66;38816.97;5003555;28;20052;-61
2024/01/18 04:33:25;;;;;;;9.85;7.00;;;;;;;-145.63;51.89;38795.44;5020345;28;20026;-61
2024/01/18 04:36:09;;;;;;;10.00;6.80;;;;;;;-145.63;50.89;38818.91;5010345;28;20034;-61
2024/01/18 04:38:59;;;;;;;11.23;7.05;;;;;;;-145.63;52.20;38809.13;5018398;28;20356;-62
2024/01/18 04:41:27;;;;;;;11.60;7.45;;;;;;;-145.63;50.85;38830.66;5029471;28;20034;-61
2024/01/18 04:44:11;;;;;;;15.13;8.20;;;;;;;-145.63;52.53;38809.13;5005228;28;20033;-61
2024/01/18 04:46:37;;;;;;;11.73;7.38;;;;;;;-145.63;52.77;38830.66;5017213;28;20189;-60
2024/01/18 04:49:03;;;;;;;12.13;7.82;;;;;;;-145.63;51.50;38836.50;5019685;28;20097;-62
2024/01/18 04:51:29;;;;;;;11.30;7.57;;;;;;;-145.63;51.14;38834.56;5020161;28;20251;-62
2024/01/18 04:53:54;;;;;;;11.65;8.05;;;;;;;-145.63;51.49;38822.81;5013150;28;20307;-61
2024/01/18 04:56:20;;;;;;;10.88;7.50;;;;;;;-145.63;52.33;38805.22;5021337;28;20022;-61
2024/01/18 04:58:46;;;;;;;10.07;7.43;;;;;;;-145.63;52.62;38828.69;5003925;28;20034;-61
2024/01/18 05:01:17;;;;;;;11.32;7.78;;;;;;;-145.63;52.75;38816.97;5020102;28;20303;-62
2024/01/18 05:03:46;;;;;;;13.75;8.98;;;;;;;-145.63;52.13;38771.97;5019648;28;20032;-61
2024/01/18 05:06:43;;;;;;;14.10;8.15;;;;;;;-145.63;52.68;38768.06;5007155;28;20098;-60
2024/01/18 05:09:16;;;;;;;11.05;8.70;;;;;;;-145.63;52.98;38816.97;5004586;28;20037;-61
2024/01/18 05:12:18;;;;;;;12.52;8.88;;;;;;;-145.63;52.54;38795.44;5017353;28;20034;-61
2024/01/18 05:14:47;;;;;;;11.40;8.30;;;;;;;-145.63;52.35;38820.88;5061332;28;20231;-60
2024/01/18 05:17:13;;;;;;;14.02;9.13;;;;;;;-145.63;51.39;38809.13;5024127;28;20037;-61
2024/01/18 05:19:44;;;;;;;14.15;9.35;;;;;;;-145.63;51.08;38781.75;5021832;28;20038;-61
2024/01/18 05:22:10;;;;;;;14.30;9.75;;;;;;;-145.63;51.89;38795.44;5008147;28;20290;-61
2024/01/18 05:24:35;;;;;;;13.13;9.55;;;;;;;-145.63;51.61;38832.59;5003096;28;20064;-63
2024/01/18 05:27:01;;;;;;;21.63;11.13;;;;;;;-145.63;51.22;38789.59;5012617;28;20133;-62
2024/01/18 05:29:27;;;;;;;20.15;12.20;;;;;;;-145.63;52.48;38762.22;5014606;28;20041;-63
2024/01/18 05:32:03;;;;;;;19.55;11.55;;;;;;;-145.63;51.83;38777.84;5005205;28;20034;-62
2024/01/18 05:34:28;;;;;;;18.63;11.85;;;;;;;-145.63;52.64;38736.78;5025280;28;20089;-66
2024/01/18 05:36:54;;;;;;;19.17;12.75;;;;;;;-145.63;51.85;38775.91;5020221;28;20033;-59
2024/01/18 05:39:19;;;;;;;19.55;12.32;;;;;;;-145.63;52.75;38773.94;5025011;28;20030;-62
2024/01/18 05:41:45;;;;;;;22.48;12.95;;;;;;;-145.63;51.71;38762.22;5015867;28;20026;-60
2024/01/18 05:44:35;;;;;;;19.15;12.90;;;;;;;-145.63;52.06;38861.94;5010069;28;20034;-60
2024/01/18 05:47:00;;;;;;;17.42;11.65;;;;;;;-145.63;51.36;38797.41;5024977;28;20049;-61
2024/01/18 05:49:26;;;;;;;22.05;13.80;;;;;;;-145.63;52.14;38787.63;5029667;28;20214;-62
2024/01/18 05:51:57;;;;;;;22.98;14.75;;;;;;;-145.63;51.83;38807.19;5026082;28;20203;-62
2024/01/18 05:54:23;;;;;;;20.88;13.52;;;;;;;-145.63;52.35;38816.97;5010389;28;20033;-61
2024/01/18 05:56:49;;;;;;;21.33;13.90;;;;;;;-145.63;52.75;38801.31;5017992;28;20021;-60
2024/01/18 05:59:14;;;;;;;23.40;13.20;;;;;;;-145.63;51.66;38813.03;5019778;28;20203;-61
2024/01/18 06:01:41;;;;;;;20.58;12.18;;;;;;;-145.63;52.13;38813.03;5005267;28;20078;-62
2024/01/18 06:04:07;;;;;;;18.05;11.65;;;;;;;-145.63;52.19;38805.22;5024808;28;20041;-61
2024/01/18 06:06:32;;;;;;;17.90;11.55;;;;;;;-145.63;52.11;38754.38;5010109;28;20030;-61
2024/01/18 06:08:58;;;;;;;18.73;12.30;;;;;;;-145.63;51.57;38785.66;5024358;28;20279;-61
2024/01/18 06:11:24;;;;;;;19.45;12.65;;;;;;;-145.63;51.96;38830.66;5018589;28;20030;-62
2024/01/18 06:13:50;;;;;;;19.10;10.57;;;;;;;-145.63;52.28;38785.66;5007971;28;20215;-60
2024/01/18 06:16:16;;;;;;;16.48;10.63;;;;;;;-145.63;51.37;38777.84;5035534;28;20025;-60
2024/01/18 06:18:42;;;;;;;16.85;10.77;;;;;;;-145.63;51.20;38760.25;5024435;28;20033;-62
2024/01/18 06:21:09;;;;;;;13.85;9.02;;;;;;;-145.63;51.64;38754.38;5023083;28;20293;-61
2024/01/18 06:23:35;;;;;;;15.38;10.00;;;;;;;-145.63;51.52;38758.28;5016929;28;20038;-61
2024/01/18 06:26:01;;;;;;;13.68;8.65;;;;;;;-145.63;51.56;38734.81;5007553;28;20180;-60
2024/01/18 06:28:27;;;;;;;12.40;8.00;;;;;;;-145.63;52.11;38748.50;5024540;28;20025;-61
2024/01/18 06:30:53;;;;;;;11.82;8.73;;;;;;;-145.63;52.64;38770.03;5006513;28;20053;-60
2024/01/18 06:33:19;;;;;;;13.00;8.20;;;;;;;-145.63;52.08;38766.13;5017940;28;20041;-61
2024/01/18 06:35:45;;;;;;;14.52;8.85;;;;;;;-145.63;52.02;38742.66;5019759;28;20333;-63
2024/01/18 06:38:11;;;;;;;11.43;7.53;;;;;;;-145.63;52.14;38742.66;5022568;28;20038;-61
2024/01/18 06:40:37;;;;;;;12.93;8.20;;;;;;;-145.63;53.01;38746.56;5024119;28;20030;-61
2024/01/18 06:43:04;;;;;;;12.07;8.07;;;;;;;-145.63;52.78;38738.75;5004460;28;20191;-61
2024/01/18 06:45:29;;;;;;;11.38;8.13;;;;;;;-145.63;52.43;38685.94;5031632;28;20028;-60
2024/01/18 06:47:55;;;;;;;15.95;7.65;;;;;;;-145.63;52.06;38699.63;5034078;28;20303;-61
2024/01/18 06:50:22;;;;;;;11.65;8.15;;;;;;;-145.63;52.50;38723.09;5033243;28;20283;-60
2024/01/18 06:52:48;;;;;;;11.32;8.40;;;;;;;-145.63;52.09;38760.25;5047101;28;20021;-62
2024/01/18 06:55:14;;;;;;;11.68;8.45;;;;;;;-145.63;51.77;38734.81;5033040;28;20088;-61
2024/01/18 06:57:40;;;;;;;14.02;8.63;;;;;;;-145.63;51.79;38777.84;5034415;28;20112;-61
2024/01/18 07:00:06;;;;;;;13.57;8.75;;;;;;;-145.63;52.01;38744.59;5031535;28;20025;-62
2024/01/18 07:02:33;;;;;;;12.13;8.57;;;;;;;-145.63;51.75;38719.19;5023335;28;20022;-62
2024/01/18 07:04:59;;;;;;;14.35;9.10;;;;;;;-145.63;52.19;38742.66;5021190;28;20033;-61
2024/01/18 07:07:25;;;;;;;12.63;8.20;;;;;;;-145.63;51.22;38742.66;5012367;28;20021;-61
2024/01/18 07:09:51;;;;;;;12.27;8.18;;;;;;;-145.63;51.25;38740.69;5014933;28;20068;-64
2024/01/18 07:12:17;;;;;;;12.30;8.55;;;;;;;-145.63;51.06;38742.66;5011866;28;20037;-61
2024/01/18 07:14:43;;;;;;;17.75;8.75;;;;;;;-145.63;49.68;38762.22;5007792;28;20346;-62
2024/01/18 07:17:10;;;;;;;12.27;8.20;;;;;;;-145.63;49.54;38760.25;5014891;28;20038;-62
2024/01/18 07:19:36;;;;;;;19.88;8.35;;;;;;;-145.63;50.33;38795.44;5007847;28;20037;-61
2024/01/18 07:22:02;;;;;;;15.20;8.85;;;;;;;-145.63;50.67;38773.94;5021999;28;20111;-63
2024/01/18 07:24:30;;;;;;;24.85;9.65;;;;;;;-145.63;48.92;38594.03;5021997;28;20296;-62
2024/01/18 07:26:57;;;;;;;10.45;7.43;;;;;;;-145.63;48.35;38771.97;5025707;28;20304;-61
2024/01/18 07:29:24;;;;;;;10.98;6.95;;;;;;;-145.63;49.42;38740.69;5009017;28;20038;-61
2024/01/18 07:31:49;;;;;;;11.30;8.25;;;;;;;-145.63;50.41;38775.91;5014464;28;20026;-61
2024/01/18 07:34:16;;;;;;;12.57;7.78;;;;;;;-145.63;49.42;38750.47;5013735;28;20052;-62
2024/01/18 07:36:43;;;;;;;11.38;7.30;;;;;;;-145.63;49.78;38791.53;5012829;28;20312;-61
2024/01/18 07:39:10;;;;;;;14.25;6.95;;;;;;;-145.63;48.98;38768.06;5007683;28;20033;-61
2024/01/18 07:41:36;;;;;;;11.13;6.72;;;;;;;-145.63;49.94;38762.22;5003570;28;20022;-61
2024/01/18 07:44:02;;;;;;;10.05;6.30;;;;;;;-145.63;48.86;38785.66;5004037;28;20281;-61
2024/01/18 07:46:28;;;;;;;13.07;7.22;;;;;;;-145.63;48.42;38779.81;5013300;28;20058;-62
2024/01/18 07:49:03;;;;;;;11.75;6.85;;;;;;;-145.63;49.60;38742.66;5008825;28;20030;-60
2024/01/18 07:51:31;;;;;;;11.68;7.05;;;;;;;-145.63;48.90;38779.81;5027895;28;20060;-62
2024/01/18 07:53:57;;;;;;;10.07;6.65;;;;;;;-145.63;49.55;38760.25;5009685;28;20226;-60
2024/01/18 07:56:23;;;;;;;12.02;6.85;;;;;;;-145.63;48.48;38771.97;5009857;28;20033;-61
2024/01/18 07:58:48;;;;;;;10.02;6.53;;;;;;;-145.63;47.99;38777.84;5016378;28;20029;-61
2024/01/18 08:01:18;;;;;;;10.43;6.10;;;;;;;-145.63;48.79;38787.63;5008942;28;20459;-61
2024/01/18 08:03:44;;;;;;;8.52;6.32;;;;;;;-145.63;48.86;38944.06;5012356;28;20034;-62
2024/01/18 08:06:11;;;;;;;8.57;6.78;;;;;;;-145.63;48.37;38807.19;5016061;28;20125;-61
2024/01/18 08:08:37;;;;;;;8.60;5.65;;;;;;;-145.63;48.02;38762.22;5013395;28;20307;-61
2024/01/18 08:11:03;;;;;;;8.38;5.90;;;;;;;-145.63;47.29;38760.25;5006278;28;20026;-62
2024/01/18 08:13:28;;;;;;;10.23;5.63;;;;;;;-145.63;48.25;38775.91;5022741;28;20041;-61
2024/01/18 08:15:57;;;;;;;8.90;5.30;;;;;;;-145.63;48.78;38787.63;5013353;28;20075;-61
2024/01/18 08:18:33;;;;;;;9.43;5.75;;;;;;;-145.63;48.15;38783.72;5016716;28;20352;-61
2024/01/18 08:20:59;;;;;;;7.43;5.80;;;;;;;-145.63;48.26;38773.94;5002923;28;20026;-62
2024/01/18 08:23:37;;;;;;;10.40;5.32;;;;;;;-145.63;46.89;38834.56;5004897;28;20093;-61
2024/01/18 08:26:12;;;;;;;9.77;5.35;;;;;;;-145.63;46.73;38805.22;5008759;28;20025;-61
2024/01/18 08:28:40;;;;;;;8.60;4.85;;;;;;;-145.63;47.51;38795.44;5001314;28;20042;-61
2024/01/18 08:31:12;;;;;;;7.68;4.78;;;;;;;-145.63;47.38;38803.28;5013764;28;20038;-61
2024/01/18 08:33:38;;;;;;;9.40;4.90;;;;;;;-145.63;47.86;38793.50;5016501;28;20036;-63
2024/01/18 08:36:22;;;;;;;9.48;4.72;;;;;;;-145.63;45.97;38801.31;5022020;28;20037;-62
2024/01/18 08:42:06;;;;;;;6.78;4.32;;;;;;;-145.63;47.78;38783.72;5011535;28;20057;-61
2024/01/18 08:44:31;;;;;;;7.65;4.95;;;;;;;-145.63;46.43;38787.63;5008320;28;20026;-62
2024/01/18 08:46:57;;;;;;;7.03;4.22;;;;;;;-145.63;46.28;38785.66;5009105;28;20337;-61
2024/01/18 08:49:24;;;;;;;5.28;3.72;;;;;;;-145.63;46.39;38789.59;5021756;28;20080;-61
2024/01/18 08:51:51;;;;;;;10.20;5.05;;;;;;;-145.63;47.09;38793.50;5024117;28;20041;-62
2024/01/18 08:54:17;;;;;;;6.53;4.65;;;;;;;-145.63;46.00;38785.66;5021957;28;20041;-61
2024/01/18 08:56:43;;;;;;;11.25;5.15;;;;;;;-145.63;47.32;38777.84;5021877;28;20030;-62
2024/01/18 08:59:08;;;;;;;8.52;5.20;;;;;;;-145.63;46.09;38766.13;5019408;28;20026;-62
2024/01/18 09:01:34;;;;;;;7.63;5.13;;;;;;;-145.63;47.30;38758.28;5002664;28;20034;-62
2024/01/18 09:03:59;;;;;;;8.98;5.40;;;;;;;-145.63;47.08;38785.66;5019898;28;20054;-62
2024/01/18 09:06:25;;;;;;;9.85;5.50;;;;;;;-145.63;46.82;38893.22;5009192;28;20026;-62
2024/01/18 09:08:51;;;;;;;11.00;5.80;;;;;;;-145.63;48.06;38775.91;5025831;28;20026;-62
2024/01/18 09:11:17;;;;;;;12.00;5.47;;;;;;;-145.63;47.12;38785.66;5022023;28;20041;-62
2024/01/18 09:13:42;;;;;;;7.82;5.30;;;;;;;-145.63;47.20;38781.75;5010558;28;20049;-62
2024/01/18 09:16:08;;;;;;;7.50;5.55;;;;;;;-145.63;47.08;38766.13;5019532;28;20033;-61
2024/01/18 09:18:34;;;;;;;7.78;4.78;;;;;;;-145.63;47.03;38791.53;5025485;28;20030;-62
2024/01/18 09:21:00;;;;;;;9.77;5.30;;;;;;;-145.63;47.35;38771.97;5033613;28;20028;-62
2024/01/18 09:23:26;;;;;;;7.10;4.80;;;;;;;-145.63;47.46;38811.09;5023098;28;20092;-62
2024/01/18 09:25:51;;;;;;;7.50;5.15;;;;;;;-145.63;47.80;38807.19;5007324;28;20030;-61
2024/01/18 09:28:17;;;;;;;6.75;4.63;;;;;;;-145.63;47.99;38795.44;5025182;28;20033;-63
2024/01/18 09:30:43;;;;;;;7.35;4.40;;;;;;;-145.63;46.61;38813.03;5020171;28;20045;-61
2024/01/18 09:33:09;;;;;;;9.05;5.22;;;;;;;-145.63;47.96;38805.22;5025030;28;20032;-61
2024/01/18 09:35:36;;;;;;;7.30;4.75;;;;;;;-145.63;46.20;38805.22;5054107;28;20022;-62
2024/01/18 09:38:03;;;;;;;7.85;4.78;;;;;;;-145.63;46.56;38766.13;5023767;28;20271;-60
2024/01/18 09:40:28;;;;;;;6.00;4.53;;;;;;;-145.63;47.03;38179.50;5025157;28;20064;-61
2024/01/18 09:42:56;;;;;;;9.07;5.22;;;;;;;-145.63;48.22;38750.47;5008803;28;20030;-61
2024/01/18 09:45:24;;;;;;;5.88;4.47;;;;;;;-145.63;47.27;38783.72;5016399;28;20084;-62
2024/01/18 09:47:52;;;;;;;6.78;4.78;;;;;;;-145.63;48.54;38809.13;5018021;28;20037;-61
2024/01/18 09:50:20;;;;;;;6.65;4.43;;;;;;;-145.63;47.37;38818.91;5023260;28;20234;-61
2024/01/18 09:52:48;;;;;;;8.13;4.63;;;;;;;-145.63;47.37;38805.22;5013493;28;20042;-61
2024/01/18 09:55:14;;;;;;;5.82;4.07;;;;;;;-145.63;48.85;38783.72;5013846;28;20097;-62
2024/01/18 09:57:44;;;;;;;7.57;4.22;;;;;;;-145.63;47.59;38801.31;5011210;28;20029;-61
2024/01/18 10:00:15;;;;;;;6.97;4.27;;;;;;;-145.63;47.08;38797.41;5010463;28;20204;-62
2024/01/18 10:02:41;;;;;;;7.07;3.97;;;;;;;-145.63;47.87;38799.34;5010746;28;20592;-62
2024/01/18 10:05:11;;;;;;;5.90;3.90;;;;;;;-145.63;48.04;38791.53;5006910;28;20038;-61
2024/01/18 10:07:36;;;;;;;6.28;3.92;;;;;;;-145.63;47.05;38818.91;5024754;28;20052;-62
2024/01/18 10:10:03;;;;;;;6.72;3.63;;;;;;;-145.63;46.58;38762.22;5024357;28;20030;-60
2024/01/18 10:12:32;;;;;;;5.20;3.28;;;;;;;-145.63;47.41;38811.09;5011799;28;20489;-62
2024/01/18 10:14:58;;;;;;;6.00;3.67;;;;;;;-145.63;46.57;38805.22;5013523;28;20485;-61
2024/01/18 10:17:25;;;;;;;6.20;3.90;;;;;;;-145.63;47.44;38826.72;5029452;28;20029;-62
2024/01/18 10:20:00;;;;;;;6.20;3.90;;;;;;;-145.63;46.98;38813.03;5030301;28;20021;-62
2024/01/18 10:22:28;;;;;;;6.05;4.32;;;;;;;-145.63;45.80;38828.69;5026074;28;20029;-61
2024/01/18 10:24:55;;;;;;;5.18;3.17;;;;;;;-145.63;47.25;38828.69;5010398;28;20054;-64
2024/01/18 10:27:22;;;;;;;4.93;3.33;;;;;;;-145.63;46.50;38813.03;5014407;28;20033;-62
2024/01/18 10:29:49;;;;;;;6.80;4.35;;;;;;;-145.63;47.44;38824.78;5008962;28;20121;-62
2024/01/18 10:32:16;;;;;;;5.45;3.88;;;;;;;-145.63;46.16;38828.69;5009971;28;20041;-63
2024/01/18 10:34:42;;;;;;;5.07;2.78;;;;;;;-145.63;46.84;38856.06;5044007;28;20033;-63
2024/01/18 10:37:15;;;;;;;5.22;3.13;;;;;;;-145.63;46.99;38820.88;5025620;28;20026;-61
2024/01/18 10:39:42;;;;;;;8.88;3.90;;;;;;;-145.63;47.67;38820.88;5023916;28;20037;-64
2024/01/18 10:42:12;;;;;;;4.75;3.40;;;;;;;-145.63;46.76;38805.22;5014349;28;20102;-62
2024/01/18 10:44:42;;;;;;;7.53;3.70;;;;;;;-145.63;46.98;38815.00;5015742;28;20041;-62
2024/01/18 10:47:13;;;;;;;9.38;3.53;;;;;;;-145.63;46.04;38828.69;5042188;28;20044;-62
2024/01/18 10:49:42;;;;;;;6.47;3.22;;;;;;;-145.63;47.43;38799.34;5030235;28;20056;-61
2024/01/18 10:52:10;;;;;;;6.68;3.35;;;;;;;-145.63;47.21;38848.25;5025549;28;20026;-61
2024/01/18 10:54:37;;;;;;;5.70;2.85;;;;;;;-145.63;46.17;38816.97;5010187;28;20038;-61
2024/01/18 10:57:04;;;;;;;5.32;3.40;;;;;;;-145.63;46.10;38858.03;5027931;28;20096;-63
2024/01/18 10:59:30;;;;;;;9.88;3.42;;;;;;;-145.63;46.98;38844.34;5039337;28;20030;-62
2024/01/18 11:01:59;;;;;;;5.63;3.08;;;;;;;-145.63;47.17;38834.56;5023675;28;20026;-61
2024/01/18 11:04:30;;;;;;;7.32;3.20;;;;;;;-145.63;47.04;38836.50;5003940;28;20026;-60
2024/01/18 11:06:58;;;;;;;5.78;3.33;;;;;;;-145.63;46.18;38707.44;5018088;28;20030;-61
2024/01/18 11:09:36;;;;;;;5.07;3.33;;;;;;;-145.63;45.79;38852.16;5015618;28;20041;-63
2024/01/18 11:12:03;;;;;;;11.18;4.10;;;;;;;-145.63;46.73;38822.81;5020184;28;20029;-62
2024/01/18 11:14:30;;;;;;;9.57;3.78;;;;;;;-145.63;45.52;38824.78;5019141;28;20052;-62
2024/01/18 11:17:15;;;;;;;7.63;3.60;;;;;;;-145.63;45.84;38826.72;5017384;28;20026;-61
2024/01/18 11:19:42;;;;;;;6.57;3.28;;;;;;;-145.63;46.21;38816.97;5003972;28;20310;-63
2024/01/18 11:22:23;;;;;;;7.15;3.58;;;;;;;-145.63;44.78;38824.78;5016298;28;20085;-63
2024/01/18 11:24:49;;;;;;;9.93;3.70;;;;;;;-145.63;45.24;38797.41;5018593;28;20132;-62
2024/01/18 11:27:19;;;;;;;6.53;3.58;;;;;;;-145.63;45.97;38813.03;5011811;28;20037;-63